PDT,Max TemperatureF,Mean TemperatureF,Min TemperatureF,Max Dew PointF,MeanDew PointF,Min DewpointF,Max Humidity, Mean Humidity, Min Humidity, Max Sea Level PressureIn, Mean Sea Level PressureIn, Min Sea Level PressureIn, Max VisibilityMiles, Mean VisibilityMiles, Min VisibilityMiles, Max Wind SpeedMPH, Mean Wind SpeedMPH, Max Gust SpeedMPH,PrecipitationIn, CloudCover, Events, WindDirDegrees
2012-8-1,104,83,61,59,50,38,78,45,11,30.00,29.94,29.87,10,10,8,13,6,16,0.00,0,,327
2012-8-2,102,82,61,58,51,37,78,45,11,29.96,29.89,29.80,10,9,2,13,4,15,0.00,0,,312
2012-8-3,99,81,62,57,51,41,78,47,15,29.85,29.79,29.72,10,10,7,10,3,16,0.00,0,,315
2012-8-4,100,82,64,59,53,45,73,45,16,29.89,29.82,29.74,10,10,10,14,5,17,0.00,0,,315
2012-8-5,97,80,63,62,57,53,78,51,24,30.00,29.94,29.89,10,10,9,12,6,14,0.00,0,,309
2012-8-6,98,81,63,62,54,49,67,45,22,30.07,30.01,29.94,10,10,9,14,7,17,0.00,0,,318
2012-8-7,99,81,62,58,55,50,68,45,21,29.99,29.94,29.87,10,10,10,16,7,21,0.00,0,,315
2012-8-8,100,84,68,59,51,45,45,34,23,29.96,29.90,29.83,10,10,10,13,6,16,0.00,0,,318
2012-8-9,104,84,64,59,55,50,78,48,18,29.90,29.84,29.76,10,10,10,12,5,16,0.00,0,,311
2012-8-10,107,86,65,63,57,51,81,49,17,29.80,29.74,29.66,10,10,7,13,5,16,0.00,0,,308
2012-8-11,107,88,69,70,61,55,73,46,18,29.75,29.71,29.65,10,10,7,12,4,15,0.00,0,,314
2012-8-12,103,89,74,66,55,45,69,42,14,29.81,29.75,29.70,10,10,10,12,6,14,0.00,0,,291
2012-8-13,106,87,67,61,53,40,76,45,13,29.81,29.75,29.68,10,10,10,12,6,16,0.00,0,,311
2012-8-14,106,90,73,62,56,46,73,44,15,29.78,29.72,29.65,10,10,9,10,4,17,0.00,0,,319
2012-8-15,105,87,69,63,55,47,54,36,18,29.80,29.75,29.70,10,10,10,14,5,18,0.00,0,,313
2012-8-16,100,82,64,58,55,51,73,46,19,29.90,29.84,29.78,10,10,7,12,6,15,0.00,0,,304
2012-8-17,100,85,69,63,50,37,47,32,17,29.94,29.86,29.81,10,10,9,16,6,20,0.00,0,,316
2012-8-18,99,87,75,57,52,44,50,35,19,29.91,29.85,29.79,10,10,9,15,8,21,T,0,Rain,319
2012-8-19,99,86,72,55,50,43,46,32,17,29.91,29.85,29.78,10,10,10,14,9,17,0.00,0,,313
2012-8-20,100,80,59,54,51,45,67,42,16,29.89,29.83,29.76,10,10,10,12,5,15,0.00,0,,316
2012-8-21,100,83,66,56,51,39,63,39,15,29.86,29.81,29.75,10,10,10,9,6,13,0.00,0,,321
2012-8-22,98,80,62,55,48,35,73,45,17,29.88,29.83,29.79,10,10,10,14,6,17,0.00,0,,310
2012-8-23,99,80,60,58,54,50,90,56,22,29.90,29.83,29.76,10,10,9,13,4,16,0.00,0,,315
2012-8-24,100,81,62,59,54,45,73,45,17,29.86,29.80,29.73,10,10,7,13,5,16,0.00,0,,317
2012-8-25,97,79,61,54,50,45,63,41,19,29.81,29.76,29.69,10,10,10,12,5,15,0.00,0,,311
2012-8-26,91,76,60,52,49,38,72,44,16,29.92,29.86,29.77,10,10,10,14,7,20,0.00,0,,322
2012-8-27,92,74,56,53,51,49,77,50,23,30.02,29.95,29.89,10,10,10,13,6,17,0.00,0,,312
2012-8-28,96,76,55,56,51,47,83,51,19,30.00,29.93,29.85,10,10,6,13,5,21,0.00,0,,313
2012-8-29,97,77,57,63,53,48,67,45,22,29.90,29.84,29.75,10,10,8,10,4,14,0.00,0,,326
2012-8-30,100,81,61,62,53,36,84,51,17,29.80,29.75,29.68,10,9,6,12,3,18,0.00,0,,312
2012-8-31,93,79,64,52,46,36,58,36,14,29.89,29.83,29.77,10,10,9,16,7,21,0.00,0,,313